createdAt,value
2023-02-24T00:00:47.348Z,6.74
2023-02-24T00:03:15.829Z,6.55
2023-02-24T00:05:54.598Z,6.44
2023-02-24T00:08:24.490Z,6.31
2023-02-24T00:10:54.244Z,6.22
2023-02-24T00:13:22.648Z,6.15
2023-02-24T00:16:02.047Z,6.08
2023-02-24T00:18:32.230Z,6.03
2023-02-24T00:21:08.203Z,6.05
2023-02-24T00:23:40.290Z,6.06
2023-02-24T00:26:10.224Z,6.13
2023-02-24T00:28:38.954Z,6.14
2023-02-24T00:31:09.913Z,6.15
2023-02-24T00:33:39.732Z,6.15
2023-02-24T00:36:10.584Z,6.15
2023-02-24T00:38:45.010Z,6.15
2023-02-24T00:41:18.281Z,6.15
2023-02-24T00:43:47.866Z,6.10
2023-02-24T00:46:17.419Z,6.13
2023-02-24T00:48:46.966Z,6.18
2023-02-24T00:51:18.122Z,6.11
2023-02-24T00:53:47.990Z,6.03
2023-02-24T00:56:17.042Z,5.99
2023-02-24T00:58:45.715Z,6.01
2023-02-24T01:01:15.728Z,6.03
2023-02-24T01:03:44.559Z,6.07
2023-02-24T01:06:14.497Z,6.07
2023-02-24T01:08:47.641Z,6.06
2023-02-24T01:11:36.484Z,6.14
2023-02-24T01:14:06.269Z,6.22
2023-02-24T01:16:34.622Z,6.29
2023-02-24T01:19:02.998Z,6.34
2023-02-24T01:21:31.415Z,6.36
2023-02-24T01:24:10.544Z,6.41
2023-02-24T01:26:40.539Z,6.42
2023-02-24T01:29:09.789Z,6.42
2023-02-24T01:31:38.593Z,6.37
2023-02-24T01:34:07.517Z,6.29
2023-02-24T01:36:35.835Z,6.21
2023-02-24T01:39:07.344Z,6.18
2023-02-24T01:41:35.732Z,6.17
2023-02-24T01:44:09.676Z,6.24
2023-02-24T01:46:39.804Z,6.30
2023-02-24T01:49:12.030Z,6.28
2023-02-24T01:51:43.892Z,6.28
2023-02-24T01:54:16.491Z,6.28
2023-02-24T01:56:48.386Z,6.29
2023-02-24T01:59:18.462Z,6.33
2023-02-24T02:01:48.446Z,6.34
2023-02-24T02:04:22.122Z,6.35
2023-02-24T02:06:50.779Z,6.42
2023-02-24T02:09:19.435Z,6.52
2023-02-24T02:11:49.287Z,6.61
2023-02-24T02:14:22.588Z,6.66
2023-02-24T02:17:05.044Z,6.70
2023-02-24T02:20:01.442Z,6.67
2023-02-24T02:22:50.151Z,6.63
2023-02-24T02:25:25.566Z,6.61
2023-02-24T02:28:22.588Z,6.57
2023-02-24T02:31:25.881Z,6.52
2023-02-24T02:34:23.392Z,6.44
2023-02-24T02:37:00.459Z,6.34
2023-02-24T02:39:37.108Z,6.22
2023-02-24T02:42:15.910Z,6.11
2023-02-24T02:44:56.172Z,5.99
2023-02-24T02:47:29.118Z,5.91
2023-02-24T02:50:08.185Z,5.84
2023-02-24T02:52:42.296Z,5.79
2023-02-24T02:55:14.618Z,5.76
2023-02-24T02:57:48.373Z,5.76
2023-02-24T03:00:23.251Z,5.76
2023-02-24T03:02:55.262Z,5.81
2023-02-24T03:05:32.864Z,5.85
2023-02-24T03:08:05.676Z,5.86
2023-02-24T03:10:34.909Z,5.83
2023-02-24T03:13:06.850Z,5.81
2023-02-24T03:15:44.839Z,5.80
2023-02-24T03:18:29.085Z,5.76
2023-02-24T03:21:07.552Z,5.77
2023-02-24T03:23:38.909Z,5.81
2023-02-24T03:26:17.265Z,5.83
2023-02-24T03:28:53.682Z,5.90
2023-02-24T03:31:29.029Z,5.92
2023-02-24T03:34:03.807Z,5.93
2023-02-24T03:36:34.128Z,5.92
2023-02-24T03:39:05.428Z,5.93
2023-02-24T03:41:41.284Z,5.85
2023-02-24T03:44:12.129Z,5.79
2023-02-24T03:46:42.582Z,5.72
2023-02-24T03:49:14.023Z,5.48
2023-02-24T03:51:45.099Z,5.25
2023-02-24T03:54:30.858Z,5.08
2023-02-24T03:57:12.909Z,5.08
2023-02-24T03:59:52.819Z,5.11
2023-02-24T04:02:25.105Z,5.08
2023-02-24T04:05:00.462Z,5.10
2023-02-24T04:07:41.193Z,5.10
2023-02-24T04:10:15.556Z,5.15
2023-02-24T04:12:53.879Z,5.17
2023-02-24T04:15:29.059Z,5.19
2023-02-24T04:18:01.423Z,5.21
2023-02-24T04:20:33.079Z,5.24
2023-02-24T04:23:08.771Z,5.23
2023-02-24T04:25:37.954Z,5.13
2023-02-24T04:28:08.031Z,5.09
2023-02-24T04:30:40.051Z,5.03
2023-02-24T04:33:10.085Z,4.96
2023-02-24T04:35:40.518Z,4.86
2023-02-24T04:38:10.219Z,4.73
2023-02-24T04:40:40.870Z,4.69
2023-02-24T04:43:09.918Z,4.64
2023-02-24T04:45:40.050Z,4.69
2023-02-24T04:48:12.951Z,4.71
2023-02-24T04:50:43.170Z,4.79
2023-02-24T04:53:15.523Z,4.91
2023-02-24T04:55:48.772Z,4.92
2023-02-24T04:58:20.236Z,4.91
2023-02-24T05:00:57.399Z,4.90
2023-02-24T05:03:28.589Z,4.95
2023-02-24T05:06:00.097Z,5.02
2023-02-24T05:08:31.850Z,5.07
2023-02-24T05:11:05.671Z,5.07
2023-02-24T05:13:37.659Z,5.07
2023-02-24T05:16:08.341Z,5.03
2023-02-24T05:18:37.207Z,4.99
2023-02-24T05:21:25.880Z,4.96
2023-02-24T05:23:55.949Z,4.87
2023-02-24T05:26:25.793Z,4.83
2023-02-24T05:28:59.665Z,4.85
2023-02-24T05:31:29.885Z,4.92
2023-02-24T05:34:02.648Z,4.94
2023-02-24T05:36:34.207Z,4.97
2023-02-24T05:39:07.696Z,4.92
2023-02-24T05:41:38.909Z,4.91
2023-02-24T05:44:09.506Z,4.87
2023-02-24T05:46:40.394Z,4.90
2023-02-24T05:49:14.302Z,4.96
2023-02-24T05:51:54.583Z,4.95
2023-02-24T05:54:29.353Z,4.91
2023-02-24T05:57:01.562Z,4.87
2023-02-24T05:59:33.075Z,4.85
2023-02-24T06:02:07.056Z,4.84
2023-02-24T06:04:50.032Z,4.81
2023-02-24T06:07:20.754Z,4.80
2023-02-24T06:09:53.634Z,4.81
2023-02-24T06:12:23.416Z,4.83
2023-02-24T06:14:53.015Z,4.82
2023-02-24T06:17:22.957Z,4.84
2023-02-24T06:19:53.076Z,4.86
2023-02-24T06:22:23.265Z,4.93
2023-02-24T06:24:54.484Z,5.07
2023-02-24T06:27:24.896Z,5.22
2023-02-24T06:29:55.329Z,5.34
2023-02-24T06:32:27.054Z,5.42
2023-02-24T06:34:57.188Z,5.50
2023-02-24T06:37:27.320Z,5.57
2023-02-24T06:39:58.260Z,5.61
2023-02-24T06:42:26.597Z,5.68
2023-02-24T06:44:54.989Z,5.74
2023-02-24T06:47:23.290Z,5.80
2023-02-24T06:49:51.761Z,5.90
2023-02-24T06:52:21.373Z,5.99
2023-02-24T06:54:52.466Z,6.07
2023-02-24T06:57:23.552Z,6.13
2023-02-24T06:59:52.325Z,6.19
2023-02-24T07:02:20.686Z,6.24
2023-02-24T07:04:49.050Z,6.30
2023-02-24T07:07:17.605Z,6.35
2023-02-24T07:09:46.132Z,6.40
2023-02-24T07:12:21.079Z,6.44
2023-02-24T07:14:50.916Z,6.49
2023-02-24T07:17:19.973Z,6.55
2023-02-24T07:19:48.378Z,6.60
2023-02-24T07:22:24.943Z,6.66
2023-02-24T07:25:00.514Z,6.72
2023-02-24T07:27:30.103Z,6.76
2023-02-24T07:30:00.142Z,6.80
2023-02-24T07:32:28.529Z,6.84
2023-02-24T07:34:56.856Z,6.89
2023-02-24T07:37:25.211Z,6.90
2023-02-24T07:39:53.692Z,6.93
2023-02-24T07:42:22.492Z,6.95
2023-02-24T07:44:50.967Z,6.96
2023-02-24T07:47:21.449Z,6.98
2023-02-24T07:49:51.302Z,7.01
2023-02-24T07:52:19.653Z,7.07
2023-02-24T07:54:49.666Z,7.12
2023-02-24T07:57:19.007Z,7.16
2023-02-24T07:59:48.120Z,7.18
2023-02-24T08:02:18.362Z,7.21
2023-02-24T08:04:51.734Z,7.23
2023-02-24T08:07:24.817Z,7.25
2023-02-24T08:10:14.415Z,7.27
2023-02-24T08:12:43.790Z,7.26
2023-02-24T08:15:24.064Z,7.28
2023-02-24T08:18:00.474Z,7.31
2023-02-24T08:20:36.270Z,7.36
2023-02-24T08:23:08.551Z,7.38
2023-02-24T08:25:36.939Z,7.43
2023-02-24T08:28:09.177Z,7.48
2023-02-24T08:30:40.684Z,7.54
2023-02-24T08:33:10.708Z,7.61
2023-02-24T08:35:45.329Z,7.70
2023-02-24T08:38:16.555Z,7.77
2023-02-24T08:40:55.113Z,7.84
2023-02-24T08:43:33.411Z,7.89
2023-02-24T08:46:06.612Z,7.96
2023-02-24T08:48:42.194Z,7.99
2023-02-24T08:51:17.768Z,7.99
2023-02-24T08:53:47.779Z,8.06
2023-02-24T08:56:24.260Z,8.13
2023-02-24T08:58:58.111Z,8.18
2023-02-24T09:01:34.633Z,8.20
2023-02-24T09:04:06.382Z,8.21
2023-02-24T09:06:45.020Z,8.23
2023-02-24T09:09:19.010Z,8.27
2023-02-24T09:11:48.445Z,8.31
2023-02-24T09:14:27.119Z,8.33
2023-02-24T09:17:11.257Z,8.35
2023-02-24T09:20:02.446Z,8.40
2023-02-24T09:22:40.680Z,8.44
2023-02-24T09:25:23.891Z,8.50
2023-02-24T09:27:56.099Z,8.55
2023-02-24T09:30:36.821Z,8.62
2023-02-24T09:33:21.260Z,8.68
2023-02-24T09:36:02.933Z,8.74
2023-02-24T09:38:50.178Z,8.79
2023-02-24T09:41:31.628Z,8.84
2023-02-24T09:44:04.020Z,8.91
2023-02-24T09:46:39.331Z,8.99
2023-02-24T09:49:17.350Z,9.11
2023-02-24T09:51:53.332Z,9.22
2023-02-24T09:54:24.725Z,9.32
2023-02-24T09:57:08.253Z,9.40
2023-02-24T10:00:01.110Z,9.50
2023-02-24T10:02:45.248Z,9.54
2023-02-24T10:05:27.387Z,9.67
2023-02-24T10:07:58.050Z,9.81
2023-02-24T10:10:36.012Z,9.93
2023-02-24T10:13:17.037Z,10.05
2023-02-24T10:16:06.171Z,10.14
2023-02-24T10:18:44.188Z,10.20
2023-02-24T10:21:30.402Z,10.26
2023-02-24T10:24:09.424Z,10.34
2023-02-24T10:27:00.090Z,10.41
2023-02-24T10:29:43.234Z,10.49
2023-02-24T10:32:24.060Z,10.59
2023-02-24T10:34:53.991Z,10.72
2023-02-24T10:37:28.912Z,10.82
2023-02-24T10:39:59.650Z,10.92
2023-02-24T10:42:31.972Z,10.97
2023-02-24T10:45:20.673Z,11.00
2023-02-24T10:47:57.094Z,11.06
2023-02-24T10:50:29.798Z,11.19
2023-02-24T10:53:34.359Z,11.36
2023-02-24T10:56:26.762Z,11.45
2023-02-24T10:59:41.224Z,11.49
2023-02-24T11:02:29.444Z,11.56
2023-02-24T11:05:37.871Z,11.61
2023-02-24T11:08:09.520Z,11.73
2023-02-24T11:10:53.264Z,11.84
2023-02-24T11:13:39.440Z,11.97
2023-02-24T11:16:29.265Z,12.02
2023-02-24T11:18:58.605Z,12.09
2023-02-24T11:21:28.769Z,12.13
2023-02-24T11:24:02.966Z,12.15
2023-02-24T11:26:37.308Z,12.14
2023-02-24T11:29:24.234Z,12.15
2023-02-24T11:32:18.922Z,12.13
2023-02-24T11:34:54.350Z,12.13
2023-02-24T11:37:37.331Z,12.10
2023-02-24T11:40:13.583Z,12.13
2023-02-24T11:42:46.275Z,12.14
2023-02-24T11:45:29.398Z,12.15
2023-02-24T11:48:04.919Z,12.16
2023-02-24T11:50:47.225Z,12.16
2023-02-24T11:53:27.325Z,12.17
2023-02-24T11:56:01.887Z,12.18
2023-02-24T11:58:40.459Z,12.22
2023-02-24T12:01:16.019Z,12.27
2023-02-24T12:03:56.687Z,12.28
2023-02-24T12:06:35.371Z,12.27
2023-02-24T12:09:10.353Z,12.28
2023-02-24T12:11:46.510Z,12.28
2023-02-24T12:14:24.171Z,12.26
2023-02-24T12:17:01.321Z,12.25
2023-02-24T12:19:37.153Z,12.24
2023-02-24T12:22:15.547Z,12.24
2023-02-24T12:24:49.850Z,12.24
2023-02-24T12:27:27.681Z,12.21
2023-02-24T12:30:06.863Z,12.21
2023-02-24T12:32:57.535Z,12.20
2023-02-24T12:35:35.281Z,12.21
2023-02-24T12:38:17.457Z,12.24
2023-02-24T12:41:05.757Z,12.24
2023-02-24T12:43:39.919Z,12.25
2023-02-24T12:46:24.278Z,12.26
2023-02-24T12:49:16.524Z,12.24
2023-02-24T12:51:57.406Z,12.22
2023-02-24T12:54:38.375Z,12.21
2023-02-24T12:57:15.791Z,12.20
2023-02-24T12:59:44.406Z,12.21
2023-02-24T13:02:23.535Z,12.19
2023-02-24T13:05:14.007Z,12.20
2023-02-24T13:08:03.867Z,12.21
2023-02-24T13:10:39.689Z,12.18
2023-02-24T13:13:25.138Z,12.15
2023-02-24T13:16:09.090Z,12.16
2023-02-24T13:18:39.555Z,12.18
2023-02-24T13:21:10.925Z,12.19
2023-02-24T13:23:42.867Z,12.21
2023-02-24T13:26:11.458Z,12.23
2023-02-24T13:28:39.917Z,12.25
2023-02-24T13:31:10.461Z,12.30
2023-02-24T13:33:41.936Z,12.38
2023-02-24T13:36:14.794Z,12.47
2023-02-24T13:38:46.107Z,12.52
2023-02-24T13:41:38.092Z,12.55
2023-02-24T13:44:24.450Z,12.49
2023-02-24T13:47:18.989Z,12.40
2023-02-24T13:50:01.090Z,12.32
2023-02-24T13:52:46.997Z,12.28
2023-02-24T13:55:33.826Z,12.30
2023-02-24T13:58:20.894Z,12.30
2023-02-24T14:01:03.618Z,12.27
2023-02-24T14:03:33.028Z,12.21
2023-02-24T14:06:02.984Z,12.16
2023-02-24T14:08:42.422Z,12.18
2023-02-24T14:11:16.380Z,12.19
2023-02-24T14:13:49.482Z,12.21
2023-02-24T14:16:21.767Z,12.20
2023-02-24T14:18:55.122Z,12.18
2023-02-24T14:21:26.018Z,12.17
2023-02-24T14:23:58.820Z,12.14
2023-02-24T14:26:31.490Z,12.16
2023-02-24T14:29:01.827Z,12.16
2023-02-24T14:31:31.257Z,12.18
2023-02-24T14:34:02.553Z,12.18
2023-02-24T14:36:34.227Z,12.14
2023-02-24T14:39:09.196Z,12.10
2023-02-24T14:41:38.886Z,12.04
2023-02-24T14:44:19.372Z,12.02
2023-02-24T14:46:49.363Z,12.04
2023-02-24T14:49:26.277Z,12.08
2023-02-24T14:51:59.099Z,12.09
2023-02-24T14:54:40.300Z,12.12
2023-02-24T14:57:13.814Z,12.12
2023-02-24T14:59:46.336Z,12.14
2023-02-24T15:02:19.600Z,12.13
2023-02-24T15:04:48.529Z,12.16
2023-02-24T15:07:23.758Z,12.19
2023-02-24T15:09:54.967Z,12.19
2023-02-24T15:12:30.166Z,12.20
2023-02-24T15:15:01.988Z,12.21
2023-02-24T15:17:31.098Z,12.24
2023-02-24T15:19:59.512Z,12.21
2023-02-24T15:22:30.676Z,12.19
2023-02-24T15:25:18.750Z,12.18
2023-02-24T15:27:53.883Z,12.16
2023-02-24T15:30:34.061Z,12.14
2023-02-24T15:33:05.938Z,12.12
2023-02-24T15:35:37.620Z,12.12
2023-02-24T15:38:06.423Z,12.12
2023-02-24T15:40:34.744Z,12.12
2023-02-24T15:43:12.001Z,12.11
2023-02-24T15:45:41.227Z,12.10
2023-02-24T15:48:24.176Z,12.09
2023-02-24T15:50:52.518Z,12.09
2023-02-24T15:53:21.077Z,12.10
2023-02-24T15:55:50.266Z,12.10
2023-02-24T15:58:23.088Z,12.10
2023-02-24T16:00:52.508Z,12.10
2023-02-24T16:03:21.061Z,12.07
2023-02-24T16:05:49.471Z,12.02
2023-02-24T16:08:20.666Z,11.95
2023-02-24T16:10:50.440Z,11.91
2023-02-24T16:13:23.996Z,11.87
2023-02-24T16:15:53.465Z,11.81
2023-02-24T16:18:24.324Z,11.78
2023-02-24T16:20:54.473Z,11.76
2023-02-24T16:23:23.895Z,11.72
2023-02-24T16:25:56.689Z,11.67
2023-02-24T16:28:27.007Z,11.63
2023-02-24T16:30:55.461Z,11.58
2023-02-24T16:33:24.351Z,11.51
2023-02-24T16:35:54.008Z,11.46
2023-02-24T16:38:26.660Z,11.41
2023-02-24T16:40:56.262Z,11.38
2023-02-24T16:43:26.044Z,11.33
2023-02-24T16:45:56.581Z,11.28
2023-02-24T16:48:27.514Z,11.22
2023-02-24T16:50:56.245Z,11.19
2023-02-24T16:53:25.389Z,11.15
2023-02-24T16:55:53.986Z,11.11
2023-02-24T16:58:23.421Z,11.09
2023-02-24T17:00:56.202Z,11.07
2023-02-24T17:03:28.008Z,11.06
2023-02-24T17:05:57.696Z,11.06
2023-02-24T17:08:26.276Z,11.06
2023-02-24T17:10:54.793Z,11.06
2023-02-24T17:13:23.250Z,11.07
2023-02-24T17:15:55.468Z,10.99
2023-02-24T17:18:24.430Z,10.83
2023-02-24T17:20:53.264Z,10.77
2023-02-24T17:23:21.794Z,10.79
2023-02-24T17:25:53.559Z,10.73
2023-02-24T17:28:22.264Z,10.58
2023-02-24T17:30:50.777Z,10.55
2023-02-24T17:33:20.530Z,10.57
2023-02-24T17:35:49.570Z,10.61
2023-02-24T17:38:20.177Z,10.58
2023-02-24T17:40:48.899Z,10.41
2023-02-24T17:43:17.515Z,10.36
2023-02-24T17:45:47.679Z,10.39
2023-02-24T17:48:16.768Z,10.46
2023-02-24T17:50:51.130Z,10.50
2023-02-24T17:53:19.631Z,10.54
2023-02-24T17:56:01.952Z,10.57
2023-02-24T17:58:30.890Z,10.60
2023-02-24T18:01:00.388Z,10.61
2023-02-24T18:03:29.287Z,10.57
2023-02-24T18:06:03.272Z,10.54
2023-02-24T18:08:33.368Z,10.54
2023-02-24T18:11:01.785Z,10.55
2023-02-24T18:13:31.292Z,10.49
2023-02-24T18:16:00.048Z,10.43
2023-02-24T18:18:30.214Z,10.42
2023-02-24T18:21:04.160Z,10.38
2023-02-24T18:23:32.668Z,10.36
2023-02-24T18:26:03.199Z,10.33
2023-02-24T18:28:32.025Z,10.24
2023-02-24T18:31:03.260Z,10.11
2023-02-24T18:33:31.898Z,9.99
2023-02-24T18:36:02.948Z,9.89
2023-02-24T18:38:31.325Z,9.83
2023-02-24T18:41:01.184Z,9.77
2023-02-24T18:43:30.102Z,9.75
2023-02-24T18:45:59.448Z,9.75
2023-02-24T18:48:28.427Z,9.73
2023-02-24T18:50:58.649Z,9.74
2023-02-24T18:53:30.386Z,9.74
2023-02-24T18:56:02.214Z,9.76
2023-02-24T18:58:31.049Z,9.79
2023-02-24T19:00:59.739Z,9.83
2023-02-24T19:03:28.119Z,9.85
2023-02-24T19:05:56.687Z,9.84
2023-02-24T19:08:25.000Z,9.80
2023-02-24T19:10:54.689Z,9.79
2023-02-24T19:13:24.039Z,9.77
2023-02-24T19:15:52.477Z,9.75
2023-02-24T19:18:20.819Z,9.73
2023-02-24T19:20:49.259Z,9.69
2023-02-24T19:23:17.613Z,9.66
2023-02-24T19:25:46.005Z,9.63
2023-02-24T19:28:16.389Z,9.58
2023-02-24T19:30:44.975Z,9.58
2023-02-24T19:33:13.400Z,9.56
2023-02-24T19:35:42.920Z,9.52
2023-02-24T19:38:14.657Z,9.48
2023-02-24T19:40:43.521Z,9.42
2023-02-24T19:43:12.410Z,9.41
2023-02-24T19:45:43.349Z,9.40
2023-02-24T19:48:11.795Z,9.36
2023-02-24T19:50:41.395Z,9.34
2023-02-24T19:53:10.156Z,9.31
2023-02-24T19:55:38.536Z,9.28
2023-02-24T19:58:06.868Z,9.23
2023-02-24T20:00:35.213Z,9.19
2023-02-24T20:03:04.907Z,9.17
2023-02-24T20:05:36.454Z,9.14
2023-02-24T20:08:05.192Z,9.08
2023-02-24T20:10:33.552Z,9.02
2023-02-24T20:13:02.005Z,8.98
2023-02-24T20:15:31.556Z,8.94
2023-02-24T20:18:08.773Z,8.91
2023-02-24T20:20:37.350Z,8.90
2023-02-24T20:23:06.312Z,8.87
2023-02-24T20:25:34.778Z,8.86
2023-02-24T20:28:03.229Z,8.82
2023-02-24T20:30:31.620Z,8.79
2023-02-24T20:33:00.106Z,8.76
2023-02-24T20:35:30.189Z,8.77
2023-02-24T20:37:58.506Z,8.78
2023-02-24T20:40:26.936Z,8.76
2023-02-24T20:42:55.375Z,8.75
2023-02-24T20:45:23.722Z,8.78
2023-02-24T20:47:52.078Z,8.79
2023-02-24T20:50:20.467Z,8.82
2023-02-24T20:52:50.122Z,8.82
2023-02-24T20:55:18.612Z,8.83
2023-02-24T20:57:47.005Z,8.78
2023-02-24T21:00:16.281Z,8.76
2023-02-24T21:02:45.083Z,8.77
2023-02-24T21:05:19.727Z,8.75
2023-02-24T21:07:50.947Z,8.72
2023-02-24T21:10:22.406Z,8.72
2023-02-24T21:12:52.601Z,8.74
2023-02-24T21:15:21.948Z,8.76
2023-02-24T21:17:54.167Z,8.77
2023-02-24T21:20:22.554Z,8.78
2023-02-24T21:22:52.984Z,8.78
2023-02-24T21:25:21.420Z,8.79
2023-02-24T21:27:49.757Z,8.82
2023-02-24T21:30:18.397Z,8.86
2023-02-24T21:32:46.943Z,8.90
2023-02-24T21:35:21.665Z,8.94
2023-02-24T21:37:49.997Z,8.98
2023-02-24T21:40:19.959Z,9.01
2023-02-24T21:42:55.556Z,8.95
2023-02-24T21:45:24.539Z,8.87
2023-02-24T21:47:53.037Z,8.87
2023-02-24T21:50:23.789Z,8.86
2023-02-24T21:52:52.605Z,8.67
2023-02-24T21:55:23.494Z,8.58
2023-02-24T21:57:55.199Z,8.58
2023-02-24T22:00:24.413Z,8.61
2023-02-24T22:02:59.917Z,8.68
2023-02-24T22:05:29.318Z,8.71
2023-02-24T22:07:58.006Z,8.74
2023-02-24T22:10:28.122Z,8.75
2023-02-24T22:12:57.930Z,8.77
2023-02-24T22:15:26.408Z,8.80
2023-02-24T22:17:57.899Z,8.81
2023-02-24T22:20:26.598Z,8.82
2023-02-24T22:23:05.691Z,8.84
2023-02-24T22:25:39.690Z,8.88
2023-02-24T22:28:08.495Z,8.88
2023-02-24T22:30:36.907Z,8.83
2023-02-24T22:33:05.359Z,8.72
2023-02-24T22:35:35.390Z,8.60
2023-02-24T22:38:04.458Z,8.52
2023-02-24T22:40:33.161Z,8.41
2023-02-24T22:43:05.083Z,8.24
2023-02-24T22:45:34.126Z,8.06
2023-02-24T22:48:03.086Z,7.89
2023-02-24T22:50:31.753Z,7.73
2023-02-24T22:53:04.455Z,7.57
2023-02-24T22:55:33.291Z,7.50
2023-02-24T22:58:03.183Z,7.38
2023-02-24T23:00:32.002Z,7.31
2023-02-24T23:03:00.737Z,7.14
2023-02-24T23:05:29.849Z,7.04
2023-02-24T23:07:59.056Z,7.00
2023-02-24T23:10:28.026Z,6.98
2023-02-24T23:12:56.923Z,6.85
2023-02-24T23:15:26.910Z,6.64
2023-02-24T23:17:55.467Z,6.53
2023-02-24T23:20:23.892Z,6.38
2023-02-24T23:22:53.579Z,6.23
2023-02-24T23:25:23.151Z,6.13
2023-02-24T23:27:54.060Z,6.06
2023-02-24T23:30:23.144Z,5.95
2023-02-24T23:33:01.047Z,5.86
2023-02-24T23:35:30.169Z,5.78
2023-02-24T23:37:58.497Z,5.72
2023-02-24T23:40:30.833Z,5.67
2023-02-24T23:43:02.586Z,5.68
2023-02-24T23:45:30.970Z,5.64
2023-02-24T23:48:00.630Z,5.60
2023-02-24T23:50:29.000Z,5.53
2023-02-24T23:52:58.563Z,5.50
2023-02-24T23:55:26.912Z,5.36
2023-02-24T23:57:55.418Z,5.29
